This is the latest recevied weather packets stored in our database for station/object JA3QOS-13. If no packets are shown the sender has not sent any weather packets the latest 10 day(s).
| Time | Temp. | Humidity | Pressure | Rain* | Wind** | Luminosity | Snow |
|---|---|---|---|---|---|---|---|
| 1787760003 | 23.89° C | 99% | 1011.8 hPa | 0 mm | - | - | - |
| 1787758204 | 23.89° C | 99% | 1012.1 hPa | 0 mm | - | - | - |
| 1787756405 | 23.89° C | 98% | 1011.7 hPa | 0 mm | - | - | - |
| 1787754604 | 23.89° C | 97% | 1012.1 hPa | 0 mm | - | - | - |
| 1787752803 | 24.44° C | 96% | 1012.5 hPa | 0 mm | - | - | - |
| 1787751004 | 25° C | 92% | 1011.9 hPa | 0 mm | - | - | - |
| 1787749204 | 25° C | 88% | 1012.2 hPa | 0 mm | - | - | - |
| 1787747403 | 25.56° C | 87% | 1012.4 hPa | 0 mm | - | - | - |
| 1787745604 | 25.56° C | 83% | 1012.5 hPa | 0 mm | - | - | - |
| 1787743804 | 25.56° C | 83% | 1012.3 hPa | 0 mm | - | - | - |
| 1787742004 | 26.11° C | 81% | 1012.3 hPa | 0 mm | - | - | - |
| 1787740203 | 26.11° C | 81% | 1011.8 hPa | 0 mm | - | - | - |
| 1787738403 | 26.67° C | 80% | 1011.5 hPa | 0 mm | - | - | - |
| 1787736603 | 26.67° C | 81% | 1011.3 hPa | 0 mm | - | - | - |
| 1787734804 | 26.67° C | 81% | 1011.5 hPa | 0 mm | - | - | - |
| 1787733004 | 27.78° C | 79% | 1011.7 hPa | 0 mm | - | - | - |
| 1787731204 | 28.33° C | 80% | 1011.2 hPa | 0 mm | - | - | - |
| 1787729403 | 30.56° C | 73% | 1011.5 hPa | 0 mm | - | - | - |
| 1787727603 | 31.67° C | 69% | 1011.4 hPa | 0 mm | - | - | - |
| 1787725804 | 31.67° C | 67% | 1011.2 hPa | 0 mm | - | - | - |
| 1787724005 | 31.67° C | 68% | 1011.3 hPa | 0 mm | - | - | - |
| 1787722203 | 32.22° C | 70% | 1011.8 hPa | 0 mm | - | - | - |
| 1787720404 | 31.67° C | 71% | 1012.1 hPa | 0 mm | - | - | - |
| 1787718603 | 30.56° C | 77% | 1012.1 hPa | 0 mm | - | - | - |
| 1787716804 | 30.56° C | 77% | 1012.5 hPa | 0 mm | - | - | - |
* Rain latest hour (hover to see other rain measurements)
** Current wind speed in m/s (hover to see current wind gust speed)